sensor_id;sensor_type;location;lat;lon;timestamp;temperature;humidity
24800;DHT22;12897;50.812;4.430;2023-02-26T00:01:20;1.90;99.90
24800;DHT22;12897;50.812;4.430;2023-02-26T00:03:47;1.90;99.90
24800;DHT22;12897;50.812;4.430;2023-02-26T00:06:15;1.90;99.90
24800;DHT22;12897;50.812;4.430;2023-02-26T00:08:41;1.90;99.90
24800;DHT22;12897;50.812;4.430;2023-02-26T00:11:09;2.00;99.90
24800;DHT22;12897;50.812;4.430;2023-02-26T00:13:37;2.00;99.90
24800;DHT22;12897;50.812;4.430;2023-02-26T00:16:08;1.90;99.90
24800;DHT22;12897;50.812;4.430;2023-02-26T00:18:32;1.90;99.90
24800;DHT22;12897;50.812;4.430;2023-02-26T00:20:59;2.00;99.90
24800;DHT22;12897;50.812;4.430;2023-02-26T00:23:26;2.00;99.90
24800;DHT22;12897;50.812;4.430;2023-02-26T00:25:53;2.10;99.90
24800;DHT22;12897;50.812;4.430;2023-02-26T00:28:20;2.10;99.90
24800;DHT22;12897;50.812;4.430;2023-02-26T00:30:47;2.00;99.90
24800;DHT22;12897;50.812;4.430;2023-02-26T00:33:14;1.90;99.90
24800;DHT22;12897;50.812;4.430;2023-02-26T00:35:41;1.90;99.90
24800;DHT22;12897;50.812;4.430;2023-02-26T00:38:08;1.80;99.90
24800;DHT22;12897;50.812;4.430;2023-02-26T00:40:42;1.80;99.90
24800;DHT22;12897;50.812;4.430;2023-02-26T00:43:14;1.90;99.90
24800;DHT22;12897;50.812;4.430;2023-02-26T00:45:43;1.90;99.90
24800;DHT22;12897;50.812;4.430;2023-02-26T00:50:59;1.70;99.90
24800;DHT22;12897;50.812;4.430;2023-02-26T00:53:40;1.70;99.90
24800;DHT22;12897;50.812;4.430;2023-02-26T00:56:00;1.90;99.90
24800;DHT22;12897;50.812;4.430;2023-02-26T00:58:27;1.90;99.90
24800;DHT22;12897;50.812;4.430;2023-02-26T01:00:54;1.80;99.90
24800;DHT22;12897;50.812;4.430;2023-02-26T01:03:24;1.80;99.90
24800;DHT22;12897;50.812;4.430;2023-02-26T01:05:51;1.80;99.90
24800;DHT22;12897;50.812;4.430;2023-02-26T01:08:19;1.70;99.90
24800;DHT22;12897;50.812;4.430;2023-02-26T01:10:46;1.70;99.90
24800;DHT22;12897;50.812;4.430;2023-02-26T01:13:13;1.70;99.90
24800;DHT22;12897;50.812;4.430;2023-02-26T01:15:41;1.70;99.90
24800;DHT22;12897;50.812;4.430;2023-02-26T01:18:15;1.80;99.90
24800;DHT22;12897;50.812;4.430;2023-02-26T01:20:42;1.80;99.90
24800;DHT22;12897;50.812;4.430;2023-02-26T01:23:08;1.70;99.90
24800;DHT22;12897;50.812;4.430;2023-02-26T01:25:38;1.60;99.90
24800;DHT22;12897;50.812;4.430;2023-02-26T01:28:05;1.50;99.90
24800;DHT22;12897;50.812;4.430;2023-02-26T01:30:32;1.40;99.90
24800;DHT22;12897;50.812;4.430;2023-02-26T01:35:53;1.50;99.90
24800;DHT22;12897;50.812;4.430;2023-02-26T01:38:23;1.60;99.90
24800;DHT22;12897;50.812;4.430;2023-02-26T01:48:47;1.60;99.90
24800;DHT22;12897;50.812;4.430;2023-02-26T01:51:08;1.60;99.90
24800;DHT22;12897;50.812;4.430;2023-02-26T01:53:35;1.60;99.90
24800;DHT22;12897;50.812;4.430;2023-02-26T01:56:03;1.50;99.90
24800;DHT22;12897;50.812;4.430;2023-02-26T01:58:31;1.50;99.90
24800;DHT22;12897;50.812;4.430;2023-02-26T02:00:58;1.60;99.90
24800;DHT22;12897;50.812;4.430;2023-02-26T02:03:26;1.60;99.90
24800;DHT22;12897;50.812;4.430;2023-02-26T02:05:57;1.50;99.90
24800;DHT22;12897;50.812;4.430;2023-02-26T02:08:44;1.50;99.90
24800;DHT22;12897;50.812;4.430;2023-02-26T02:11:11;1.50;99.90
24800;DHT22;12897;50.812;4.430;2023-02-26T02:13:46;1.40;99.90
24800;DHT22;12897;50.812;4.430;2023-02-26T02:16:14;1.60;99.90
24800;DHT22;12897;50.812;4.430;2023-02-26T02:24:03;1.50;99.90
24800;DHT22;12897;50.812;4.430;2023-02-26T02:29:05;1.30;99.90
24800;DHT22;12897;50.812;4.430;2023-02-26T02:32:17;1.20;99.90
24800;DHT22;12897;50.812;4.430;2023-02-26T02:34:00;1.10;99.90
24800;DHT22;12897;50.812;4.430;2023-02-26T02:39:07;1.40;99.90
24800;DHT22;12897;50.812;4.430;2023-02-26T02:41:39;1.50;99.90
24800;DHT22;12897;50.812;4.430;2023-02-26T02:44:06;1.50;99.90
24800;DHT22;12897;50.812;4.430;2023-02-26T02:46:34;1.40;99.90
24800;DHT22;12897;50.812;4.430;2023-02-26T02:49:10;1.50;99.90
24800;DHT22;12897;50.812;4.430;2023-02-26T02:51:34;1.40;99.90
24800;DHT22;12897;50.812;4.430;2023-02-26T02:54:09;1.40;99.90
24800;DHT22;12897;50.812;4.430;2023-02-26T02:59:19;1.60;99.90
24800;DHT22;12897;50.812;4.430;2023-02-26T03:01:41;1.70;99.90
24800;DHT22;12897;50.812;4.430;2023-02-26T03:04:15;2.00;99.90
24800;DHT22;12897;50.812;4.430;2023-02-26T03:06:40;2.20;99.90
24800;DHT22;12897;50.812;4.430;2023-02-26T03:09:07;2.30;99.90
24800;DHT22;12897;50.812;4.430;2023-02-26T03:11:35;2.20;99.90
24800;DHT22;12897;50.812;4.430;2023-02-26T03:14:08;2.10;99.90
24800;DHT22;12897;50.812;4.430;2023-02-26T03:16:42;2.20;99.90
24800;DHT22;12897;50.812;4.430;2023-02-26T03:19:23;2.20;99.90
24800;DHT22;12897;50.812;4.430;2023-02-26T03:29:37;1.90;99.90
24800;DHT22;12897;50.812;4.430;2023-02-26T03:32:06;2.00;99.90
24800;DHT22;12897;50.812;4.430;2023-02-26T03:34:53;2.00;99.90
24800;DHT22;12897;50.812;4.430;2023-02-26T03:39:50;2.00;99.90
24800;DHT22;12897;50.812;4.430;2023-02-26T03:42:24;2.00;99.90
24800;DHT22;12897;50.812;4.430;2023-02-26T03:45:10;2.00;99.90
24800;DHT22;12897;50.812;4.430;2023-02-26T03:47:36;1.90;99.90
24800;DHT22;12897;50.812;4.430;2023-02-26T03:50:06;1.90;99.90
24800;DHT22;12897;50.812;4.430;2023-02-26T03:52:34;2.00;99.90
24800;DHT22;12897;50.812;4.430;2023-02-26T03:55:07;1.90;99.90
24800;DHT22;12897;50.812;4.430;2023-02-26T03:57:32;1.90;99.90
24800;DHT22;12897;50.812;4.430;2023-02-26T03:59:59;1.90;99.90
24800;DHT22;12897;50.812;4.430;2023-02-26T04:02:36;2.00;99.90
24800;DHT22;12897;50.812;4.430;2023-02-26T04:05:00;1.80;99.90
24800;DHT22;12897;50.812;4.430;2023-02-26T04:07:26;1.80;99.90
24800;DHT22;12897;50.812;4.430;2023-02-26T04:09:53;1.80;99.90
24800;DHT22;12897;50.812;4.430;2023-02-26T04:12:26;1.70;99.90
24800;DHT22;12897;50.812;4.430;2023-02-26T04:14:48;1.70;99.90
24800;DHT22;12897;50.812;4.430;2023-02-26T04:17:15;1.80;99.90
24800;DHT22;12897;50.812;4.430;2023-02-26T04:19:43;1.80;99.90
24800;DHT22;12897;50.812;4.430;2023-02-26T04:22:10;1.70;99.90
24800;DHT22;12897;50.812;4.430;2023-02-26T04:24:37;1.70;99.90
24800;DHT22;12897;50.812;4.430;2023-02-26T04:27:04;1.70;99.90
24800;DHT22;12897;50.812;4.430;2023-02-26T04:29:31;1.80;99.90
24800;DHT22;12897;50.812;4.430;2023-02-26T04:31:57;1.70;99.90
24800;DHT22;12897;50.812;4.430;2023-02-26T04:34:25;1.70;99.90
24800;DHT22;12897;50.812;4.430;2023-02-26T04:36:52;1.70;99.90
24800;DHT22;12897;50.812;4.430;2023-02-26T04:39:19;1.60;99.90
24800;DHT22;12897;50.812;4.430;2023-02-26T04:41:46;1.60;99.90
24800;DHT22;12897;50.812;4.430;2023-02-26T04:44:13;1.80;99.90
24800;DHT22;12897;50.812;4.430;2023-02-26T04:46:39;1.70;99.90
24800;DHT22;12897;50.812;4.430;2023-02-26T04:49:06;1.70;99.90
24800;DHT22;12897;50.812;4.430;2023-02-26T04:51:33;1.70;99.90
24800;DHT22;12897;50.812;4.430;2023-02-26T04:54:00;1.70;99.90
24800;DHT22;12897;50.812;4.430;2023-02-26T04:56:27;1.60;99.90
24800;DHT22;12897;50.812;4.430;2023-02-26T04:58:53;1.60;99.90
24800;DHT22;12897;50.812;4.430;2023-02-26T05:01:20;1.60;99.90
24800;DHT22;12897;50.812;4.430;2023-02-26T05:03:47;1.70;99.90
24800;DHT22;12897;50.812;4.430;2023-02-26T05:06:14;1.70;99.90
24800;DHT22;12897;50.812;4.430;2023-02-26T05:08:41;1.70;99.90
24800;DHT22;12897;50.812;4.430;2023-02-26T05:11:08;1.60;99.90
24800;DHT22;12897;50.812;4.430;2023-02-26T05:13:36;1.50;99.90
24800;DHT22;12897;50.812;4.430;2023-02-26T05:16:03;1.50;99.90
24800;DHT22;12897;50.812;4.430;2023-02-26T05:18:30;1.50;99.90
24800;DHT22;12897;50.812;4.430;2023-02-26T05:20:57;1.50;99.90
24800;DHT22;12897;50.812;4.430;2023-02-26T05:23:24;1.60;99.90
24800;DHT22;12897;50.812;4.430;2023-02-26T05:25:53;1.40;99.90
24800;DHT22;12897;50.812;4.430;2023-02-26T05:28:20;1.40;99.90
24800;DHT22;12897;50.812;4.430;2023-02-26T05:30:47;1.30;99.90
24800;DHT22;12897;50.812;4.430;2023-02-26T05:33:14;1.20;99.90
24800;DHT22;12897;50.812;4.430;2023-02-26T05:35:41;1.30;99.90
24800;DHT22;12897;50.812;4.430;2023-02-26T05:38:07;1.30;99.90
24800;DHT22;12897;50.812;4.430;2023-02-26T05:40:34;1.30;99.90
24800;DHT22;12897;50.812;4.430;2023-02-26T05:43:01;1.20;99.90
24800;DHT22;12897;50.812;4.430;2023-02-26T05:45:28;1.20;99.90
24800;DHT22;12897;50.812;4.430;2023-02-26T05:47:54;1.20;99.90
24800;DHT22;12897;50.812;4.430;2023-02-26T05:50:21;1.20;99.90
24800;DHT22;12897;50.812;4.430;2023-02-26T05:52:48;1.20;99.90
24800;DHT22;12897;50.812;4.430;2023-02-26T05:55:15;1.20;99.90
24800;DHT22;12897;50.812;4.430;2023-02-26T05:57:42;1.20;99.90
24800;DHT22;12897;50.812;4.430;2023-02-26T06:00:09;1.30;99.90
24800;DHT22;12897;50.812;4.430;2023-02-26T06:02:36;1.30;99.90
24800;DHT22;12897;50.812;4.430;2023-02-26T06:05:03;1.30;99.90
24800;DHT22;12897;50.812;4.430;2023-02-26T06:07:30;1.10;99.90
24800;DHT22;12897;50.812;4.430;2023-02-26T06:09:57;1.10;99.90
24800;DHT22;12897;50.812;4.430;2023-02-26T06:12:24;1.10;99.90
24800;DHT22;12897;50.812;4.430;2023-02-26T06:14:51;1.10;99.90
24800;DHT22;12897;50.812;4.430;2023-02-26T06:17:17;1.00;99.90
24800;DHT22;12897;50.812;4.430;2023-02-26T06:19:45;1.00;99.90
24800;DHT22;12897;50.812;4.430;2023-02-26T06:22:11;1.00;99.90
24800;DHT22;12897;50.812;4.430;2023-02-26T06:24:38;1.00;99.90
24800;DHT22;12897;50.812;4.430;2023-02-26T06:27:05;0.90;99.90
24800;DHT22;12897;50.812;4.430;2023-02-26T06:29:32;0.90;99.90
24800;DHT22;12897;50.812;4.430;2023-02-26T06:31:59;1.00;99.90
24800;DHT22;12897;50.812;4.430;2023-02-26T06:34:26;0.90;99.90
24800;DHT22;12897;50.812;4.430;2023-02-26T06:36:53;0.90;99.90
24800;DHT22;12897;50.812;4.430;2023-02-26T06:39:20;0.90;99.90
24800;DHT22;12897;50.812;4.430;2023-02-26T06:41:47;1.00;99.90
24800;DHT22;12897;50.812;4.430;2023-02-26T06:44:14;0.90;99.90
24800;DHT22;12897;50.812;4.430;2023-02-26T06:46:41;0.90;99.90
24800;DHT22;12897;50.812;4.430;2023-02-26T06:49:08;0.90;99.90
24800;DHT22;12897;50.812;4.430;2023-02-26T06:51:34;0.90;99.90
24800;DHT22;12897;50.812;4.430;2023-02-26T06:54:01;0.80;99.90
24800;DHT22;12897;50.812;4.430;2023-02-26T06:56:28;0.90;99.90
24800;DHT22;12897;50.812;4.430;2023-02-26T06:58:55;0.90;99.90
24800;DHT22;12897;50.812;4.430;2023-02-26T07:01:22;1.00;99.90
24800;DHT22;12897;50.812;4.430;2023-02-26T07:03:49;1.00;99.90
24800;DHT22;12897;50.812;4.430;2023-02-26T07:06:16;1.00;99.90
24800;DHT22;12897;50.812;4.430;2023-02-26T07:08:43;1.10;99.90
24800;DHT22;12897;50.812;4.430;2023-02-26T07:11:09;1.20;99.90
24800;DHT22;12897;50.812;4.430;2023-02-26T07:13:36;1.20;99.90
24800;DHT22;12897;50.812;4.430;2023-02-26T07:16:04;1.20;99.90
24800;DHT22;12897;50.812;4.430;2023-02-26T07:18:32;1.10;99.90
24800;DHT22;12897;50.812;4.430;2023-02-26T07:20:59;1.10;99.90
24800;DHT22;12897;50.812;4.430;2023-02-26T07:23:26;1.10;99.90
24800;DHT22;12897;50.812;4.430;2023-02-26T07:25:53;1.00;99.90
24800;DHT22;12897;50.812;4.430;2023-02-26T07:28:22;1.00;99.90
24800;DHT22;12897;50.812;4.430;2023-02-26T07:30:49;1.20;99.90
24800;DHT22;12897;50.812;4.430;2023-02-26T07:33:16;1.20;99.90
24800;DHT22;12897;50.812;4.430;2023-02-26T07:35:43;1.10;99.90
24800;DHT22;12897;50.812;4.430;2023-02-26T07:38:10;1.00;99.90
24800;DHT22;12897;50.812;4.430;2023-02-26T07:40:37;1.10;99.90
24800;DHT22;12897;50.812;4.430;2023-02-26T07:43:03;1.00;99.90
24800;DHT22;12897;50.812;4.430;2023-02-26T07:45:30;1.20;99.90
24800;DHT22;12897;50.812;4.430;2023-02-26T07:47:57;1.20;99.90
24800;DHT22;12897;50.812;4.430;2023-02-26T07:50:24;1.30;99.90
24800;DHT22;12897;50.812;4.430;2023-02-26T07:52:51;1.40;99.90
24800;DHT22;12897;50.812;4.430;2023-02-26T07:55:18;1.40;99.90
24800;DHT22;12897;50.812;4.430;2023-02-26T07:57:45;1.50;99.90
24800;DHT22;12897;50.812;4.430;2023-02-26T08:00:14;1.40;99.90
24800;DHT22;12897;50.812;4.430;2023-02-26T08:02:40;1.50;99.90
24800;DHT22;12897;50.812;4.430;2023-02-26T08:05:07;1.40;99.90
24800;DHT22;12897;50.812;4.430;2023-02-26T08:07:34;1.40;99.90
24800;DHT22;12897;50.812;4.430;2023-02-26T08:10:02;1.40;99.90
24800;DHT22;12897;50.812;4.430;2023-02-26T08:12:29;1.50;99.90
24800;DHT22;12897;50.812;4.430;2023-02-26T08:14:57;1.50;99.90
24800;DHT22;12897;50.812;4.430;2023-02-26T08:17:25;1.40;99.90
24800;DHT22;12897;50.812;4.430;2023-02-26T08:19:52;1.50;99.90
24800;DHT22;12897;50.812;4.430;2023-02-26T08:22:19;1.50;99.90
24800;DHT22;12897;50.812;4.430;2023-02-26T08:24:52;1.60;99.90
24800;DHT22;12897;50.812;4.430;2023-02-26T08:27:20;1.60;99.90
24800;DHT22;12897;50.812;4.430;2023-02-26T08:29:48;1.60;99.90
24800;DHT22;12897;50.812;4.430;2023-02-26T08:32:16;1.70;99.90
24800;DHT22;12897;50.812;4.430;2023-02-26T08:34:44;1.80;99.90
24800;DHT22;12897;50.812;4.430;2023-02-26T08:37:12;1.90;99.90
24800;DHT22;12897;50.812;4.430;2023-02-26T08:39:39;2.00;99.90
24800;DHT22;12897;50.812;4.430;2023-02-26T08:42:06;2.10;99.90
24800;DHT22;12897;50.812;4.430;2023-02-26T08:44:34;2.20;99.90
24800;DHT22;12897;50.812;4.430;2023-02-26T08:47:00;2.00;99.90
24800;DHT22;12897;50.812;4.430;2023-02-26T08:49:28;2.00;99.90
24800;DHT22;12897;50.812;4.430;2023-02-26T08:51:56;2.10;99.90
24800;DHT22;12897;50.812;4.430;2023-02-26T08:54:24;2.10;99.90
24800;DHT22;12897;50.812;4.430;2023-02-26T08:56:52;2.30;99.90
24800;DHT22;12897;50.812;4.430;2023-02-26T08:59:20;2.50;99.90
24800;DHT22;12897;50.812;4.430;2023-02-26T09:04:11;2.20;99.90
24800;DHT22;12897;50.812;4.430;2023-02-26T09:06:39;2.20;99.90
24800;DHT22;12897;50.812;4.430;2023-02-26T09:09:06;2.20;99.90
24800;DHT22;12897;50.812;4.430;2023-02-26T09:11:34;2.20;99.90
24800;DHT22;12897;50.812;4.430;2023-02-26T09:14:03;2.20;99.90
24800;DHT22;12897;50.812;4.430;2023-02-26T09:16:31;2.30;99.90
24800;DHT22;12897;50.812;4.430;2023-02-26T09:19:01;2.40;99.90
24800;DHT22;12897;50.812;4.430;2023-02-26T09:21:29;2.40;99.90
24800;DHT22;12897;50.812;4.430;2023-02-26T09:23:58;2.40;99.90
24800;DHT22;12897;50.812;4.430;2023-02-26T09:26:25;2.40;99.90
24800;DHT22;12897;50.812;4.430;2023-02-26T09:28:53;2.50;99.90
24800;DHT22;12897;50.812;4.430;2023-02-26T09:31:21;2.50;99.90
24800;DHT22;12897;50.812;4.430;2023-02-26T09:33:49;2.50;99.90
24800;DHT22;12897;50.812;4.430;2023-02-26T09:36:18;2.50;99.90
24800;DHT22;12897;50.812;4.430;2023-02-26T09:38:46;2.60;99.90
24800;DHT22;12897;50.812;4.430;2023-02-26T09:41:23;2.70;99.90
24800;DHT22;12897;50.812;4.430;2023-02-26T09:44:12;2.70;99.90
24800;DHT22;12897;50.812;4.430;2023-02-26T09:49:52;2.70;99.90
24800;DHT22;12897;50.812;4.430;2023-02-26T09:55:13;2.90;99.90
24800;DHT22;12897;50.812;4.430;2023-02-26T09:57:41;2.90;99.90
24800;DHT22;12897;50.812;4.430;2023-02-26T10:03:15;3.00;99.90
24800;DHT22;12897;50.812;4.430;2023-02-26T10:05:42;3.10;99.90
24800;DHT22;12897;50.812;4.430;2023-02-26T10:08:13;3.20;99.90
24800;DHT22;12897;50.812;4.430;2023-02-26T10:13:35;3.30;99.90
24800;DHT22;12897;50.812;4.430;2023-02-26T10:15:47;3.30;99.90
24800;DHT22;12897;50.812;4.430;2023-02-26T10:18:22;3.40;99.90
24800;DHT22;12897;50.812;4.430;2023-02-26T10:20:58;3.50;99.90
24800;DHT22;12897;50.812;4.430;2023-02-26T10:23:41;3.50;99.90
24800;DHT22;12897;50.812;4.430;2023-02-26T10:29:45;3.50;99.90
24800;DHT22;12897;50.812;4.430;2023-02-26T10:40:36;3.60;99.90
24800;DHT22;12897;50.812;4.430;2023-02-26T10:46:13;3.80;99.90
24800;DHT22;12897;50.812;4.430;2023-02-26T10:48:45;3.70;99.90
24800;DHT22;12897;50.812;4.430;2023-02-26T10:51:20;3.60;99.90
24800;DHT22;12897;50.812;4.430;2023-02-26T10:53:57;3.60;99.90
24800;DHT22;12897;50.812;4.430;2023-02-26T10:56:30;3.60;99.90
24800;DHT22;12897;50.812;4.430;2023-02-26T10:58:58;3.60;99.90
24800;DHT22;12897;50.812;4.430;2023-02-26T11:01:28;3.80;99.90
24800;DHT22;12897;50.812;4.430;2023-02-26T11:03:58;3.90;99.90
24800;DHT22;12897;50.812;4.430;2023-02-26T11:06:33;4.00;99.90
24800;DHT22;12897;50.812;4.430;2023-02-26T11:08:59;4.00;99.90
24800;DHT22;12897;50.812;4.430;2023-02-26T11:11:45;4.10;99.90
24800;DHT22;12897;50.812;4.430;2023-02-26T11:14:12;4.40;99.90
24800;DHT22;12897;50.812;4.430;2023-02-26T11:17:00;4.40;99.90
24800;DHT22;12897;50.812;4.430;2023-02-26T11:19:26;4.40;99.90
24800;DHT22;12897;50.812;4.430;2023-02-26T11:21:59;4.40;99.90
24800;DHT22;12897;50.812;4.430;2023-02-26T11:27:03;4.70;99.90
24800;DHT22;12897;50.812;4.430;2023-02-26T11:29:37;4.70;99.90
24800;DHT22;12897;50.812;4.430;2023-02-26T11:32:06;4.60;99.90
24800;DHT22;12897;50.812;4.430;2023-02-26T11:34:34;4.60;99.90
24800;DHT22;12897;50.812;4.430;2023-02-26T11:37:04;4.70;99.90
24800;DHT22;12897;50.812;4.430;2023-02-26T11:39:37;4.50;99.90
24800;DHT22;12897;50.812;4.430;2023-02-26T11:42:05;4.30;99.90
24800;DHT22;12897;50.812;4.430;2023-02-26T11:44:44;4.20;99.90
24800;DHT22;12897;50.812;4.430;2023-02-26T11:47:20;4.30;99.90
24800;DHT22;12897;50.812;4.430;2023-02-26T11:49:48;4.50;99.90
24800;DHT22;12897;50.812;4.430;2023-02-26T11:52:20;4.70;99.90
24800;DHT22;12897;50.812;4.430;2023-02-26T11:54:50;5.00;99.90
24800;DHT22;12897;50.812;4.430;2023-02-26T11:57:19;5.20;99.90
24800;DHT22;12897;50.812;4.430;2023-02-26T11:59:51;5.50;99.90
24800;DHT22;12897;50.812;4.430;2023-02-26T12:02:21;5.50;99.90
24800;DHT22;12897;50.812;4.430;2023-02-26T12:04:51;5.30;99.90
24800;DHT22;12897;50.812;4.430;2023-02-26T12:07:21;5.30;99.90
24800;DHT22;12897;50.812;4.430;2023-02-26T12:09:49;5.30;99.90
24800;DHT22;12897;50.812;4.430;2023-02-26T12:12:47;5.20;99.90
24800;DHT22;12897;50.812;4.430;2023-02-26T12:15:31;5.30;99.90
24800;DHT22;12897;50.812;4.430;2023-02-26T12:29:11;5.00;99.90
24800;DHT22;12897;50.812;4.430;2023-02-26T12:40:13;5.10;99.90
24800;DHT22;12897;50.812;4.430;2023-02-26T12:42:44;5.00;99.90
24800;DHT22;12897;50.812;4.430;2023-02-26T12:45:33;5.10;99.90
24800;DHT22;12897;50.812;4.430;2023-02-26T12:53:39;4.70;99.90
24800;DHT22;12897;50.812;4.430;2023-02-26T12:56:23;4.70;99.90
24800;DHT22;12897;50.812;4.430;2023-02-26T12:59:09;4.70;99.90
24800;DHT22;12897;50.812;4.430;2023-02-26T13:04:41;4.70;99.90
24800;DHT22;12897;50.812;4.430;2023-02-26T13:10:02;5.00;99.90
24800;DHT22;12897;50.812;4.430;2023-02-26T13:12:53;5.10;99.90
24800;DHT22;12897;50.812;4.430;2023-02-26T13:18:13;5.10;99.90
24800;DHT22;12897;50.812;4.430;2023-02-26T13:20:44;5.20;99.90
24800;DHT22;12897;50.812;4.430;2023-02-26T13:23:13;5.10;99.90
24800;DHT22;12897;50.812;4.430;2023-02-26T13:25:43;5.10;99.90
24800;DHT22;12897;50.812;4.430;2023-02-26T13:28:38;5.10;99.90
24800;DHT22;12897;50.812;4.430;2023-02-26T13:31:16;5.00;99.90
24800;DHT22;12897;50.812;4.430;2023-02-26T13:33:36;5.10;99.90
24800;DHT22;12897;50.812;4.430;2023-02-26T13:36:06;5.20;99.90
24800;DHT22;12897;50.812;4.430;2023-02-26T13:51:48;5.30;97.70
24800;DHT22;12897;50.812;4.430;2023-02-26T13:57:22;5.40;98.10
24800;DHT22;12897;50.812;4.430;2023-02-26T13:59:29;5.40;98.40
24800;DHT22;12897;50.812;4.430;2023-02-26T14:01:56;5.40;98.80
24800;DHT22;12897;50.812;4.430;2023-02-26T14:04:28;5.40;99.10
24800;DHT22;12897;50.812;4.430;2023-02-26T14:17:29;5.40;98.40
24800;DHT22;12897;50.812;4.430;2023-02-26T14:22:33;5.40;96.10
24800;DHT22;12897;50.812;4.430;2023-02-26T14:27:48;5.10;96.30
24800;DHT22;12897;50.812;4.430;2023-02-26T14:30:27;5.00;97.10
24800;DHT22;12897;50.812;4.430;2023-02-26T14:35:39;5.10;97.60
24800;DHT22;12897;50.812;4.430;2023-02-26T14:38:14;5.30;97.40
24800;DHT22;12897;50.812;4.430;2023-02-26T14:40:50;5.30;97.00
24800;DHT22;12897;50.812;4.430;2023-02-26T14:43:30;5.40;95.90
24800;DHT22;12897;50.812;4.430;2023-02-26T14:45:54;5.40;94.90
24800;DHT22;12897;50.812;4.430;2023-02-26T14:48:22;5.50;94.40
24800;DHT22;12897;50.812;4.430;2023-02-26T14:54:06;5.60;94.70
24800;DHT22;12897;50.812;4.430;2023-02-26T14:57:01;5.60;94.40
24800;DHT22;12897;50.812;4.430;2023-02-26T15:08:30;5.40;95.10
24800;DHT22;12897;50.812;4.430;2023-02-26T15:16:26;5.30;94.60
24800;DHT22;12897;50.812;4.430;2023-02-26T15:19:00;5.40;94.70
24800;DHT22;12897;50.812;4.430;2023-02-26T15:21:44;5.20;94.90
24800;DHT22;12897;50.812;4.430;2023-02-26T15:24:09;5.20;95.50
24800;DHT22;12897;50.812;4.430;2023-02-26T15:26:46;5.20;95.90
24800;DHT22;12897;50.812;4.430;2023-02-26T15:29:15;5.20;95.90
24800;DHT22;12897;50.812;4.430;2023-02-26T15:31:54;5.30;95.60
24800;DHT22;12897;50.812;4.430;2023-02-26T15:34:23;5.20;95.60
24800;DHT22;12897;50.812;4.430;2023-02-26T15:36:55;5.30;95.60
24800;DHT22;12897;50.812;4.430;2023-02-26T15:39:25;5.30;96.10
24800;DHT22;12897;50.812;4.430;2023-02-26T15:41:54;5.40;96.10
24800;DHT22;12897;50.812;4.430;2023-02-26T15:44:30;5.30;95.50
24800;DHT22;12897;50.812;4.430;2023-02-26T15:46:57;5.30;95.70
24800;DHT22;12897;50.812;4.430;2023-02-26T15:49:36;5.20;96.00
24800;DHT22;12897;50.812;4.430;2023-02-26T15:51:57;5.20;96.10
24800;DHT22;12897;50.812;4.430;2023-02-26T15:54:32;5.30;96.30
24800;DHT22;12897;50.812;4.430;2023-02-26T15:56:57;5.30;96.80
24800;DHT22;12897;50.812;4.430;2023-02-26T15:59:29;5.50;96.40
24800;DHT22;12897;50.812;4.430;2023-02-26T16:02:00;5.40;96.20
24800;DHT22;12897;50.812;4.430;2023-02-26T16:04:28;5.30;96.30
24800;DHT22;12897;50.812;4.430;2023-02-26T16:06:57;5.30;96.90
24800;DHT22;12897;50.812;4.430;2023-02-26T16:09:27;5.30;97.30
24800;DHT22;12897;50.812;4.430;2023-02-26T16:11:58;5.30;97.20
24800;DHT22;12897;50.812;4.430;2023-02-26T16:14:29;5.40;97.60
24800;DHT22;12897;50.812;4.430;2023-02-26T16:16:58;5.30;97.50
24800;DHT22;12897;50.812;4.430;2023-02-26T16:22:05;5.30;97.60
24800;DHT22;12897;50.812;4.430;2023-02-26T16:24:33;5.40;98.10
24800;DHT22;12897;50.812;4.430;2023-02-26T16:27:04;5.40;98.20
24800;DHT22;12897;50.812;4.430;2023-02-26T16:29:35;5.30;98.10
24800;DHT22;12897;50.812;4.430;2023-02-26T16:34:58;5.20;98.90
24800;DHT22;12897;50.812;4.430;2023-02-26T16:37:26;5.20;99.60
24800;DHT22;12897;50.812;4.430;2023-02-26T16:39:56;5.10;99.90
24800;DHT22;12897;50.812;4.430;2023-02-26T16:45:43;5.20;99.90
24800;DHT22;12897;50.812;4.430;2023-02-26T16:47:53;5.10;99.90
24800;DHT22;12897;50.812;4.430;2023-02-26T16:50:25;5.10;99.90
24800;DHT22;12897;50.812;4.430;2023-02-26T16:53:03;5.00;99.90
24800;DHT22;12897;50.812;4.430;2023-02-26T16:55:31;5.00;99.90
24800;DHT22;12897;50.812;4.430;2023-02-26T16:58:00;5.00;99.90
24800;DHT22;12897;50.812;4.430;2023-02-26T17:00:32;4.90;99.90
24800;DHT22;12897;50.812;4.430;2023-02-26T17:03:16;4.90;99.90
24800;DHT22;12897;50.812;4.430;2023-02-26T17:05:56;4.90;99.90
24800;DHT22;12897;50.812;4.430;2023-02-26T17:08:23;4.80;99.90
24800;DHT22;12897;50.812;4.430;2023-02-26T17:11:05;4.80;99.90
24800;DHT22;12897;50.812;4.430;2023-02-26T17:13:30;4.90;99.90
24800;DHT22;12897;50.812;4.430;2023-02-26T17:16:01;4.80;99.90
24800;DHT22;12897;50.812;4.430;2023-02-26T17:18:30;4.80;99.90
24800;DHT22;12897;50.812;4.430;2023-02-26T17:20:59;4.70;99.90
24800;DHT22;12897;50.812;4.430;2023-02-26T17:23:33;4.70;99.90
24800;DHT22;12897;50.812;4.430;2023-02-26T17:26:03;4.90;99.90
24800;DHT22;12897;50.812;4.430;2023-02-26T17:28:34;5.00;99.90
24800;DHT22;12897;50.812;4.430;2023-02-26T17:31:03;4.90;99.90
24800;DHT22;12897;50.812;4.430;2023-02-26T17:33:31;4.90;99.90
24800;DHT22;12897;50.812;4.430;2023-02-26T17:36:01;4.70;99.90
24800;DHT22;12897;50.812;4.430;2023-02-26T17:38:29;4.60;99.90
24800;DHT22;12897;50.812;4.430;2023-02-26T17:40:58;4.60;99.90
24800;DHT22;12897;50.812;4.430;2023-02-26T17:43:26;4.70;99.90
24800;DHT22;12897;50.812;4.430;2023-02-26T17:45:57;4.60;99.90
24800;DHT22;12897;50.812;4.430;2023-02-26T17:48:26;4.60;99.90
24800;DHT22;12897;50.812;4.430;2023-02-26T17:50:55;4.70;99.90
24800;DHT22;12897;50.812;4.430;2023-02-26T17:53:24;4.60;99.90
24800;DHT22;12897;50.812;4.430;2023-02-26T17:55:53;4.60;99.90
24800;DHT22;12897;50.812;4.430;2023-02-26T17:58:27;4.70;99.90
24800;DHT22;12897;50.812;4.430;2023-02-26T18:00:55;4.60;99.90
24800;DHT22;12897;50.812;4.430;2023-02-26T18:03:23;4.60;99.90
24800;DHT22;12897;50.812;4.430;2023-02-26T18:05:52;4.60;99.90
24800;DHT22;12897;50.812;4.430;2023-02-26T18:08:21;4.60;99.90
24800;DHT22;12897;50.812;4.430;2023-02-26T18:10:50;4.50;99.90
24800;DHT22;12897;50.812;4.430;2023-02-26T18:13:18;4.50;99.90
24800;DHT22;12897;50.812;4.430;2023-02-26T18:15:47;4.40;99.90
24800;DHT22;12897;50.812;4.430;2023-02-26T18:18:16;4.30;99.90
24800;DHT22;12897;50.812;4.430;2023-02-26T18:20:44;4.20;99.90
24800;DHT22;12897;50.812;4.430;2023-02-26T18:23:11;4.20;99.90
24800;DHT22;12897;50.812;4.430;2023-02-26T18:25:42;4.20;99.90
24800;DHT22;12897;50.812;4.430;2023-02-26T18:28:13;4.10;99.90
24800;DHT22;12897;50.812;4.430;2023-02-26T18:30:41;4.10;99.90
24800;DHT22;12897;50.812;4.430;2023-02-26T18:33:10;4.10;99.90
24800;DHT22;12897;50.812;4.430;2023-02-26T18:35:38;4.10;99.90
24800;DHT22;12897;50.812;4.430;2023-02-26T18:38:19;4.10;99.90
24800;DHT22;12897;50.812;4.430;2023-02-26T18:40:42;4.20;99.90
24800;DHT22;12897;50.812;4.430;2023-02-26T18:43:10;4.10;99.90